sensor_id;sensor_type;location;lat;lon;timestamp;P1;durP1;ratioP1;P2;durP2;ratioP2
66145;SDS011;52948;60.040;30.320;2022-11-20T00:02:11;1.25;;;0.82;;
66145;SDS011;52948;60.040;30.320;2022-11-20T00:07:15;2.72;;;1.20;;
66145;SDS011;52948;60.040;30.320;2022-11-20T00:12:17;2.55;;;1.10;;
66145;SDS011;52948;60.040;30.320;2022-11-20T00:17:19;2.22;;;0.82;;
66145;SDS011;52948;60.040;30.320;2022-11-20T00:22:21;2.00;;;1.00;;
66145;SDS011;52948;60.040;30.320;2022-11-20T00:27:23;0.82;;;0.63;;
66145;SDS011;52948;60.040;30.320;2022-11-20T00:32:26;2.55;;;1.70;;
66145;SDS011;52948;60.040;30.320;2022-11-20T00:37:28;1.52;;;1.02;;
66145;SDS011;52948;60.040;30.320;2022-11-20T00:42:30;2.33;;;1.38;;
66145;SDS011;52948;60.040;30.320;2022-11-20T00:47:34;1.77;;;1.30;;
66145;SDS011;52948;60.040;30.320;2022-11-20T00:52:36;3.33;;;1.10;;
66145;SDS011;52948;60.040;30.320;2022-11-20T00:57:38;2.78;;;1.00;;
66145;SDS011;52948;60.040;30.320;2022-11-20T01:02:41;1.45;;;1.35;;
66145;SDS011;52948;60.040;30.320;2022-11-20T01:07:43;2.85;;;1.60;;
66145;SDS011;52948;60.040;30.320;2022-11-20T01:12:45;2.15;;;1.20;;
66145;SDS011;52948;60.040;30.320;2022-11-20T01:18:07;2.13;;;1.50;;
66145;SDS011;52948;60.040;30.320;2022-11-20T01:23:09;2.60;;;1.40;;
66145;SDS011;52948;60.040;30.320;2022-11-20T01:28:12;2.42;;;1.05;;
66145;SDS011;52948;60.040;30.320;2022-11-20T01:33:14;2.83;;;1.40;;
66145;SDS011;52948;60.040;30.320;2022-11-20T01:38:16;2.10;;;1.67;;
66145;SDS011;52948;60.040;30.320;2022-11-20T01:43:19;2.35;;;1.50;;
66145;SDS011;52948;60.040;30.320;2022-11-20T01:48:22;2.05;;;1.08;;
66145;SDS011;52948;60.040;30.320;2022-11-20T01:53:27;2.25;;;1.40;;
66145;SDS011;52948;60.040;30.320;2022-11-20T01:58:35;3.00;;;1.60;;
66145;SDS011;52948;60.040;30.320;2022-11-20T02:03:38;3.10;;;1.38;;
66145;SDS011;52948;60.040;30.320;2022-11-20T02:08:41;2.38;;;1.70;;
66145;SDS011;52948;60.040;30.320;2022-11-20T02:13:43;2.35;;;1.40;;
66145;SDS011;52948;60.040;30.320;2022-11-20T02:18:46;2.42;;;1.40;;
66145;SDS011;52948;60.040;30.320;2022-11-20T02:29:02;2.95;;;1.80;;
66145;SDS011;52948;60.040;30.320;2022-11-20T02:34:05;3.15;;;1.63;;
66145;SDS011;52948;60.040;30.320;2022-11-20T02:39:07;4.68;;;2.00;;
66145;SDS011;52948;60.040;30.320;2022-11-20T02:44:10;1.85;;;1.42;;
66145;SDS011;52948;60.040;30.320;2022-11-20T02:49:12;2.75;;;2.28;;
66145;SDS011;52948;60.040;30.320;2022-11-20T02:54:15;2.60;;;1.73;;
66145;SDS011;52948;60.040;30.320;2022-11-20T02:59:17;2.30;;;1.73;;
66145;SDS011;52948;60.040;30.320;2022-11-20T03:04:19;2.20;;;1.50;;
66145;SDS011;52948;60.040;30.320;2022-11-20T03:09:21;6.53;;;1.25;;
66145;SDS011;52948;60.040;30.320;2022-11-20T03:14:24;1.15;;;1.05;;
66145;SDS011;52948;60.040;30.320;2022-11-20T03:19:26;4.03;;;1.65;;
66145;SDS011;52948;60.040;30.320;2022-11-20T03:24:28;3.25;;;2.05;;
66145;SDS011;52948;60.040;30.320;2022-11-20T03:29:30;3.17;;;2.30;;
66145;SDS011;52948;60.040;30.320;2022-11-20T03:34:32;2.10;;;1.60;;
66145;SDS011;52948;60.040;30.320;2022-11-20T03:39:35;2.38;;;1.75;;
66145;SDS011;52948;60.040;30.320;2022-11-20T03:44:38;3.10;;;1.40;;
66145;SDS011;52948;60.040;30.320;2022-11-20T03:49:40;2.75;;;1.80;;
66145;SDS011;52948;60.040;30.320;2022-11-20T03:54:43;3.33;;;1.65;;
66145;SDS011;52948;60.040;30.320;2022-11-20T03:59:47;3.00;;;1.77;;
66145;SDS011;52948;60.040;30.320;2022-11-20T04:04:49;2.22;;;1.45;;
66145;SDS011;52948;60.040;30.320;2022-11-20T04:09:51;4.32;;;1.80;;
66145;SDS011;52948;60.040;30.320;2022-11-20T04:14:54;3.78;;;1.35;;
66145;SDS011;52948;60.040;30.320;2022-11-20T04:19:56;4.95;;;2.17;;
66145;SDS011;52948;60.040;30.320;2022-11-20T04:24:59;5.28;;;2.03;;
66145;SDS011;52948;60.040;30.320;2022-11-20T04:30:01;3.38;;;1.90;;
66145;SDS011;52948;60.040;30.320;2022-11-20T04:35:03;4.18;;;2.58;;
66145;SDS011;52948;60.040;30.320;2022-11-20T04:40:06;3.35;;;2.38;;
66145;SDS011;52948;60.040;30.320;2022-11-20T04:45:09;4.18;;;2.80;;
66145;SDS011;52948;60.040;30.320;2022-11-20T04:50:11;3.53;;;2.10;;
66145;SDS011;52948;60.040;30.320;2022-11-20T04:55:14;3.53;;;2.40;;
66145;SDS011;52948;60.040;30.320;2022-11-20T05:00:17;7.03;;;2.38;;
66145;SDS011;52948;60.040;30.320;2022-11-20T05:05:20;3.88;;;2.33;;
66145;SDS011;52948;60.040;30.320;2022-11-20T05:10:29;3.92;;;2.60;;
66145;SDS011;52948;60.040;30.320;2022-11-20T05:15:33;3.20;;;2.42;;
66145;SDS011;52948;60.040;30.320;2022-11-20T05:20:36;3.53;;;2.35;;
66145;SDS011;52948;60.040;30.320;2022-11-20T05:25:38;5.50;;;3.00;;
66145;SDS011;52948;60.040;30.320;2022-11-20T05:30:40;3.85;;;2.42;;
66145;SDS011;52948;60.040;30.320;2022-11-20T05:35:42;4.95;;;2.25;;
66145;SDS011;52948;60.040;30.320;2022-11-20T05:40:45;4.47;;;2.97;;
66145;SDS011;52948;60.040;30.320;2022-11-20T05:45:53;3.75;;;2.33;;
66145;SDS011;52948;60.040;30.320;2022-11-20T05:50:56;4.38;;;3.00;;
66145;SDS011;52948;60.040;30.320;2022-11-20T05:56:03;2.60;;;1.70;;
66145;SDS011;52948;60.040;30.320;2022-11-20T06:01:14;4.53;;;2.85;;
66145;SDS011;52948;60.040;30.320;2022-11-20T06:06:25;4.60;;;2.80;;
66145;SDS011;52948;60.040;30.320;2022-11-20T06:11:27;3.70;;;1.38;;
66145;SDS011;52948;60.040;30.320;2022-11-20T06:16:30;1.13;;;1.00;;
66145;SDS011;52948;60.040;30.320;2022-11-20T06:21:32;4.85;;;2.80;;
66145;SDS011;52948;60.040;30.320;2022-11-20T06:26:34;4.85;;;2.70;;
66145;SDS011;52948;60.040;30.320;2022-11-20T06:31:37;4.47;;;2.88;;
66145;SDS011;52948;60.040;30.320;2022-11-20T06:36:39;3.47;;;2.22;;
66145;SDS011;52948;60.040;30.320;2022-11-20T06:41:41;1.70;;;1.40;;
66145;SDS011;52948;60.040;30.320;2022-11-20T06:46:43;3.45;;;1.80;;
66145;SDS011;52948;60.040;30.320;2022-11-20T06:51:46;6.32;;;3.28;;
66145;SDS011;52948;60.040;30.320;2022-11-20T06:56:48;4.50;;;2.78;;
66145;SDS011;52948;60.040;30.320;2022-11-20T07:01:50;4.95;;;2.65;;
66145;SDS011;52948;60.040;30.320;2022-11-20T07:06:53;2.65;;;1.70;;
66145;SDS011;52948;60.040;30.320;2022-11-20T07:11:55;3.55;;;2.40;;
66145;SDS011;52948;60.040;30.320;2022-11-20T07:16:57;3.85;;;3.00;;
66145;SDS011;52948;60.040;30.320;2022-11-20T07:21:59;4.20;;;2.58;;
66145;SDS011;52948;60.040;30.320;2022-11-20T07:27:02;3.63;;;2.45;;
66145;SDS011;52948;60.040;30.320;2022-11-20T07:32:04;6.38;;;2.35;;
66145;SDS011;52948;60.040;30.320;2022-11-20T07:37:06;3.97;;;2.45;;
66145;SDS011;52948;60.040;30.320;2022-11-20T07:42:08;4.75;;;2.38;;
66145;SDS011;52948;60.040;30.320;2022-11-20T07:47:12;2.80;;;1.45;;
66145;SDS011;52948;60.040;30.320;2022-11-20T07:52:15;5.10;;;2.33;;
66145;SDS011;52948;60.040;30.320;2022-11-20T07:57:17;2.28;;;1.60;;
66145;SDS011;52948;60.040;30.320;2022-11-20T08:02:19;6.78;;;2.72;;
66145;SDS011;52948;60.040;30.320;2022-11-20T08:07:21;5.18;;;2.75;;
66145;SDS011;52948;60.040;30.320;2022-11-20T08:12:23;4.68;;;2.40;;
66145;SDS011;52948;60.040;30.320;2022-11-20T08:17:44;4.00;;;2.38;;
66145;SDS011;52948;60.040;30.320;2022-11-20T08:22:50;5.50;;;3.05;;
66145;SDS011;52948;60.040;30.320;2022-11-20T08:27:52;6.97;;;3.10;;
66145;SDS011;52948;60.040;30.320;2022-11-20T08:32:54;4.75;;;2.85;;
66145;SDS011;52948;60.040;30.320;2022-11-20T08:37:57;4.90;;;2.70;;
66145;SDS011;52948;60.040;30.320;2022-11-20T08:42:59;3.63;;;2.17;;
66145;SDS011;52948;60.040;30.320;2022-11-20T08:48:02;5.30;;;2.47;;
66145;SDS011;52948;60.040;30.320;2022-11-20T08:53:05;5.55;;;3.17;;
66145;SDS011;52948;60.040;30.320;2022-11-20T08:58:07;4.82;;;2.53;;
66145;SDS011;52948;60.040;30.320;2022-11-20T09:03:09;4.97;;;3.00;;
66145;SDS011;52948;60.040;30.320;2022-11-20T09:08:11;8.43;;;3.03;;
66145;SDS011;52948;60.040;30.320;2022-11-20T09:13:14;6.03;;;3.38;;
66145;SDS011;52948;60.040;30.320;2022-11-20T09:18:16;5.03;;;3.30;;
66145;SDS011;52948;60.040;30.320;2022-11-20T09:23:18;7.80;;;3.13;;
66145;SDS011;52948;60.040;30.320;2022-11-20T09:28:21;2.75;;;1.90;;
66145;SDS011;52948;60.040;30.320;2022-11-20T09:33:23;5.93;;;3.08;;
66145;SDS011;52948;60.040;30.320;2022-11-20T09:38:25;4.75;;;2.92;;
66145;SDS011;52948;60.040;30.320;2022-11-20T09:59:35;4.82;;;3.55;;
66145;SDS011;52948;60.040;30.320;2022-11-20T10:04:46;4.88;;;2.75;;
66145;SDS011;52948;60.040;30.320;2022-11-20T10:09:52;4.30;;;3.00;;
66145;SDS011;52948;60.040;30.320;2022-11-20T10:15:01;5.53;;;3.10;;
66145;SDS011;52948;60.040;30.320;2022-11-20T10:20:19;8.05;;;3.72;;
66145;SDS011;52948;60.040;30.320;2022-11-20T10:25:33;4.25;;;2.38;;
66145;SDS011;52948;60.040;30.320;2022-11-20T10:30:42;4.20;;;2.65;;
66145;SDS011;52948;60.040;30.320;2022-11-20T10:35:48;4.45;;;2.10;;
66145;SDS011;52948;60.040;30.320;2022-11-20T10:40:57;5.65;;;2.45;;
66145;SDS011;52948;60.040;30.320;2022-11-20T10:56:51;5.20;;;2.45;;
66145;SDS011;52948;60.040;30.320;2022-11-20T11:01:55;3.50;;;2.10;;
66145;SDS011;52948;60.040;30.320;2022-11-20T11:07:19;4.60;;;2.70;;
66145;SDS011;52948;60.040;30.320;2022-11-20T11:12:26;2.00;;;1.63;;
66145;SDS011;52948;60.040;30.320;2022-11-20T11:17:31;4.93;;;2.22;;
66145;SDS011;52948;60.040;30.320;2022-11-20T11:22:35;4.40;;;2.50;;
66145;SDS011;52948;60.040;30.320;2022-11-20T11:27:51;4.07;;;2.60;;
66145;SDS011;52948;60.040;30.320;2022-11-20T11:33:04;6.20;;;3.20;;
66145;SDS011;52948;60.040;30.320;2022-11-20T11:38:11;8.13;;;3.78;;
66145;SDS011;52948;60.040;30.320;2022-11-20T11:43:17;1.65;;;1.55;;
66145;SDS011;52948;60.040;30.320;2022-11-20T11:54:25;4.95;;;3.05;;
66145;SDS011;52948;60.040;30.320;2022-11-20T11:59:41;6.47;;;2.75;;
66145;SDS011;52948;60.040;30.320;2022-11-20T12:04:50;5.38;;;2.65;;
66145;SDS011;52948;60.040;30.320;2022-11-20T12:09:56;4.53;;;2.88;;
66145;SDS011;52948;60.040;30.320;2022-11-20T12:15:06;3.45;;;1.95;;
66145;SDS011;52948;60.040;30.320;2022-11-20T12:20:13;3.25;;;1.52;;
66145;SDS011;52948;60.040;30.320;2022-11-20T12:30:33;2.17;;;1.73;;
66145;SDS011;52948;60.040;30.320;2022-11-20T12:47:07;4.20;;;1.50;;
66145;SDS011;52948;60.040;30.320;2022-11-20T12:52:30;1.85;;;1.23;;
66145;SDS011;52948;60.040;30.320;2022-11-20T12:58:11;2.95;;;1.77;;
66145;SDS011;52948;60.040;30.320;2022-11-20T13:03:37;4.60;;;2.67;;
66145;SDS011;52948;60.040;30.320;2022-11-20T13:08:52;3.28;;;1.60;;
66145;SDS011;52948;60.040;30.320;2022-11-20T13:19:16;5.00;;;2.25;;
66145;SDS011;52948;60.040;30.320;2022-11-20T13:29:25;3.65;;;1.98;;
66145;SDS011;52948;60.040;30.320;2022-11-20T13:34:30;5.25;;;2.80;;
66145;SDS011;52948;60.040;30.320;2022-11-20T13:39:33;6.03;;;3.40;;
66145;SDS011;52948;60.040;30.320;2022-11-20T13:44:38;5.07;;;2.72;;
66145;SDS011;52948;60.040;30.320;2022-11-20T13:49:41;4.13;;;2.15;;
66145;SDS011;52948;60.040;30.320;2022-11-20T13:59:57;1.77;;;0.98;;
66145;SDS011;52948;60.040;30.320;2022-11-20T14:04:59;2.42;;;2.03;;
66145;SDS011;52948;60.040;30.320;2022-11-20T14:10:03;5.15;;;2.65;;
66145;SDS011;52948;60.040;30.320;2022-11-20T14:15:22;6.53;;;3.00;;
66145;SDS011;52948;60.040;30.320;2022-11-20T14:20:27;6.53;;;3.33;;
66145;SDS011;52948;60.040;30.320;2022-11-20T14:25:31;2.72;;;1.50;;
66145;SDS011;52948;60.040;30.320;2022-11-20T14:35:52;2.22;;;1.52;;
66145;SDS011;52948;60.040;30.320;2022-11-20T14:41:05;4.93;;;2.30;;
66145;SDS011;52948;60.040;30.320;2022-11-20T14:46:08;2.13;;;1.90;;
66145;SDS011;52948;60.040;30.320;2022-11-20T14:51:12;3.50;;;2.25;;
66145;SDS011;52948;60.040;30.320;2022-11-20T14:56:26;2.17;;;1.38;;
66145;SDS011;52948;60.040;30.320;2022-11-20T15:01:30;3.70;;;2.10;;
66145;SDS011;52948;60.040;30.320;2022-11-20T15:06:34;4.70;;;1.85;;
66145;SDS011;52948;60.040;30.320;2022-11-20T15:11:36;5.57;;;3.20;;
66145;SDS011;52948;60.040;30.320;2022-11-20T15:16:38;3.35;;;1.65;;
66145;SDS011;52948;60.040;30.320;2022-11-20T15:21:41;4.03;;;2.75;;
66145;SDS011;52948;60.040;30.320;2022-11-20T15:26:43;3.13;;;2.00;;
66145;SDS011;52948;60.040;30.320;2022-11-20T15:31:45;5.40;;;2.13;;
66145;SDS011;52948;60.040;30.320;2022-11-20T15:36:47;8.02;;;3.97;;
66145;SDS011;52948;60.040;30.320;2022-11-20T15:41:50;10.63;;;2.88;;
66145;SDS011;52948;60.040;30.320;2022-11-20T15:46:52;5.20;;;1.80;;
66145;SDS011;52948;60.040;30.320;2022-11-20T15:51:54;10.35;;;4.00;;
66145;SDS011;52948;60.040;30.320;2022-11-20T15:56:56;7.80;;;3.80;;
66145;SDS011;52948;60.040;30.320;2022-11-20T16:02:00;2.67;;;1.90;;
66145;SDS011;52948;60.040;30.320;2022-11-20T16:07:06;5.15;;;2.58;;
66145;SDS011;52948;60.040;30.320;2022-11-20T16:12:09;4.75;;;1.98;;
66145;SDS011;52948;60.040;30.320;2022-11-20T16:17:32;4.53;;;2.35;;
66145;SDS011;52948;60.040;30.320;2022-11-20T16:22:45;2.97;;;2.10;;
66145;SDS011;52948;60.040;30.320;2022-11-20T16:27:47;9.32;;;3.97;;
66145;SDS011;52948;60.040;30.320;2022-11-20T16:32:49;5.35;;;2.97;;
66145;SDS011;52948;60.040;30.320;2022-11-20T16:37:51;9.32;;;3.40;;
66145;SDS011;52948;60.040;30.320;2022-11-20T16:42:54;3.42;;;2.78;;
66145;SDS011;52948;60.040;30.320;2022-11-20T16:47:56;2.72;;;1.63;;
66145;SDS011;52948;60.040;30.320;2022-11-20T16:52:59;7.25;;;2.83;;
66145;SDS011;52948;60.040;30.320;2022-11-20T16:58:01;6.00;;;3.33;;
66145;SDS011;52948;60.040;30.320;2022-11-20T17:03:03;11.25;;;4.78;;
66145;SDS011;52948;60.040;30.320;2022-11-20T17:08:06;10.57;;;4.40;;
66145;SDS011;52948;60.040;30.320;2022-11-20T17:13:08;7.60;;;4.03;;
66145;SDS011;52948;60.040;30.320;2022-11-20T17:18:12;9.10;;;4.60;;
66145;SDS011;52948;60.040;30.320;2022-11-20T17:23:14;9.80;;;4.05;;
66145;SDS011;52948;60.040;30.320;2022-11-20T17:28:16;8.43;;;4.60;;
66145;SDS011;52948;60.040;30.320;2022-11-20T17:33:18;6.32;;;3.92;;
66145;SDS011;52948;60.040;30.320;2022-11-20T17:38:21;11.05;;;5.40;;
66145;SDS011;52948;60.040;30.320;2022-11-20T17:43:23;9.38;;;4.70;;
66145;SDS011;52948;60.040;30.320;2022-11-20T17:48:25;11.00;;;5.20;;
66145;SDS011;52948;60.040;30.320;2022-11-20T17:53:41;9.05;;;4.07;;
66145;SDS011;52948;60.040;30.320;2022-11-20T17:59:02;8.90;;;5.07;;
66145;SDS011;52948;60.040;30.320;2022-11-20T18:04:17;9.75;;;4.85;;
66145;SDS011;52948;60.040;30.320;2022-11-20T18:09:55;8.02;;;4.60;;
66145;SDS011;52948;60.040;30.320;2022-11-20T18:14:57;11.25;;;4.95;;
66145;SDS011;52948;60.040;30.320;2022-11-20T18:20:00;7.72;;;3.60;;
66145;SDS011;52948;60.040;30.320;2022-11-20T18:25:02;6.28;;;3.90;;
66145;SDS011;52948;60.040;30.320;2022-11-20T18:30:05;10.02;;;4.75;;
66145;SDS011;52948;60.040;30.320;2022-11-20T18:35:07;10.90;;;4.88;;
66145;SDS011;52948;60.040;30.320;2022-11-20T18:40:10;9.32;;;4.40;;
66145;SDS011;52948;60.040;30.320;2022-11-20T18:45:13;9.50;;;4.68;;
66145;SDS011;52948;60.040;30.320;2022-11-20T18:50:15;8.60;;;4.68;;
66145;SDS011;52948;60.040;30.320;2022-11-20T18:55:18;8.55;;;4.20;;
66145;SDS011;52948;60.040;30.320;2022-11-20T19:00:21;7.75;;;3.90;;
66145;SDS011;52948;60.040;30.320;2022-11-20T19:05:23;10.50;;;4.30;;
66145;SDS011;52948;60.040;30.320;2022-11-20T19:10:28;4.70;;;2.88;;
66145;SDS011;52948;60.040;30.320;2022-11-20T19:15:31;5.47;;;3.25;;
66145;SDS011;52948;60.040;30.320;2022-11-20T19:20:33;6.45;;;3.28;;
66145;SDS011;52948;60.040;30.320;2022-11-20T19:25:36;7.03;;;3.42;;
66145;SDS011;52948;60.040;30.320;2022-11-20T19:30:39;4.55;;;2.50;;
66145;SDS011;52948;60.040;30.320;2022-11-20T19:35:42;6.22;;;3.50;;
66145;SDS011;52948;60.040;30.320;2022-11-20T19:40:44;4.47;;;2.72;;
66145;SDS011;52948;60.040;30.320;2022-11-20T19:45:47;6.68;;;3.42;;
66145;SDS011;52948;60.040;30.320;2022-11-20T19:50:50;5.55;;;3.33;;
66145;SDS011;52948;60.040;30.320;2022-11-20T19:55:55;5.93;;;3.47;;
66145;SDS011;52948;60.040;30.320;2022-11-20T20:06:10;7.32;;;3.15;;
66145;SDS011;52948;60.040;30.320;2022-11-20T20:11:16;5.03;;;3.20;;
66145;SDS011;52948;60.040;30.320;2022-11-20T20:16:25;4.47;;;3.33;;
66145;SDS011;52948;60.040;30.320;2022-11-20T20:21:31;3.65;;;2.88;;
66145;SDS011;52948;60.040;30.320;2022-11-20T20:26:35;5.88;;;3.25;;
66145;SDS011;52948;60.040;30.320;2022-11-20T20:31:38;7.25;;;3.33;;
66145;SDS011;52948;60.040;30.320;2022-11-20T20:36:40;5.80;;;3.38;;
66145;SDS011;52948;60.040;30.320;2022-11-20T20:41:42;3.47;;;2.67;;
66145;SDS011;52948;60.040;30.320;2022-11-20T20:46:45;2.88;;;1.70;;
66145;SDS011;52948;60.040;30.320;2022-11-20T20:51:47;3.47;;;3.10;;
66145;SDS011;52948;60.040;30.320;2022-11-20T20:56:50;4.78;;;2.67;;
66145;SDS011;52948;60.040;30.320;2022-11-20T21:01:52;3.65;;;2.63;;
66145;SDS011;52948;60.040;30.320;2022-11-20T21:07:00;3.33;;;2.70;;
66145;SDS011;52948;60.040;30.320;2022-11-20T21:12:03;3.90;;;2.72;;
66145;SDS011;52948;60.040;30.320;2022-11-20T21:17:08;4.15;;;3.08;;
66145;SDS011;52948;60.040;30.320;2022-11-20T21:22:11;4.93;;;2.75;;
66145;SDS011;52948;60.040;30.320;2022-11-20T21:27:20;5.90;;;3.03;;
66145;SDS011;52948;60.040;30.320;2022-11-20T21:32:23;3.47;;;2.78;;
66145;SDS011;52948;60.040;30.320;2022-11-20T21:37:25;4.65;;;2.85;;
66145;SDS011;52948;60.040;30.320;2022-11-20T21:42:27;4.45;;;3.20;;
66145;SDS011;52948;60.040;30.320;2022-11-20T21:47:33;5.13;;;3.35;;
66145;SDS011;52948;60.040;30.320;2022-11-20T21:52:35;4.45;;;3.05;;
66145;SDS011;52948;60.040;30.320;2022-11-20T21:57:38;5.22;;;3.05;;
66145;SDS011;52948;60.040;30.320;2022-11-20T22:02:40;5.22;;;2.92;;
66145;SDS011;52948;60.040;30.320;2022-11-20T22:07:43;5.32;;;3.10;;
66145;SDS011;52948;60.040;30.320;2022-11-20T22:12:45;4.80;;;3.58;;
66145;SDS011;52948;60.040;30.320;2022-11-20T22:17:47;5.35;;;3.35;;
66145;SDS011;52948;60.040;30.320;2022-11-20T22:23:09;4.45;;;3.15;;
66145;SDS011;52948;60.040;30.320;2022-11-20T22:28:11;5.10;;;3.45;;
66145;SDS011;52948;60.040;30.320;2022-11-20T22:33:13;4.97;;;3.45;;
66145;SDS011;52948;60.040;30.320;2022-11-20T22:38:15;4.50;;;3.10;;
66145;SDS011;52948;60.040;30.320;2022-11-20T22:43:18;4.40;;;3.22;;
66145;SDS011;52948;60.040;30.320;2022-11-20T22:48:20;6.30;;;3.67;;
66145;SDS011;52948;60.040;30.320;2022-11-20T22:53:22;6.78;;;3.20;;
66145;SDS011;52948;60.040;30.320;2022-11-20T22:58:26;5.28;;;3.63;;
66145;SDS011;52948;60.040;30.320;2022-11-20T23:03:32;6.65;;;3.53;;
66145;SDS011;52948;60.040;30.320;2022-11-20T23:08:34;5.28;;;2.97;;
66145;SDS011;52948;60.040;30.320;2022-11-20T23:13:38;2.90;;;2.50;;
66145;SDS011;52948;60.040;30.320;2022-11-20T23:19:07;5.28;;;2.85;;
66145;SDS011;52948;60.040;30.320;2022-11-20T23:24:11;5.07;;;2.92;;
66145;SDS011;52948;60.040;30.320;2022-11-20T23:29:13;4.93;;;3.00;;
66145;SDS011;52948;60.040;30.320;2022-11-20T23:34:15;3.28;;;2.65;;
66145;SDS011;52948;60.040;30.320;2022-11-20T23:39:18;5.97;;;3.33;;
66145;SDS011;52948;60.040;30.320;2022-11-20T23:44:24;3.30;;;2.53;;
66145;SDS011;52948;60.040;30.320;2022-11-20T23:49:30;4.80;;;3.10;;
66145;SDS011;52948;60.040;30.320;2022-11-20T23:54:36;4.95;;;2.90;;
66145;SDS011;52948;60.040;30.320;2022-11-20T23:59:40;4.15;;;3.25;;
